Terminal Aerodrome Forecast
Issued by NWS Bismarck, ND

Home | Current Version | Previous Version | Graphics & Text | Print | Product List | Glossary On
Versions: 1 2 3 4 5 6 7 8 9 10 11 12 13 14 15 16 17 18
000
FTUS43 KBIS 251100
TAFBIS
TAF
KBIS 251126Z 2512/2612 33007KT P6SM SCT015 BKN035
      TEMPO 2512/2514 BKN015 OVC025
     FM251400 34010KT P6SM -SHSN SCT007 OVC013
      TEMPO 2514/2518 -SHSN BKN007 OVC015
     FM251800 35014KT P6SM -SHSN OVC015
     FM260200 33012KT P6SM SCT015 BKN035=

USA.gov is the U.S. government's official web portal to all federal, state and local government web resources and services.